createdAt,value
2019-03-23T00:00:11.652Z,37.70
2019-03-23T00:05:15.871Z,39.83
2019-03-23T00:10:18.528Z,37.13
2019-03-23T00:15:21.132Z,38.17
2019-03-23T00:20:23.696Z,38.80
2019-03-23T00:25:26.262Z,39.83
2019-03-23T00:30:28.849Z,41.40
2019-03-23T00:35:31.429Z,37.57
2019-03-23T00:40:33.993Z,36.40
2019-03-23T00:45:36.609Z,36.13
2019-03-23T00:50:39.227Z,38.00
2019-03-23T00:55:41.894Z,32.77
2019-03-23T01:00:44.458Z,37.93
2019-03-23T01:05:47.015Z,33.50
2019-03-23T01:10:49.494Z,33.37
2019-03-23T01:15:52.068Z,32.83
2019-03-23T01:20:54.664Z,35.10
2019-03-23T01:25:59.074Z,33.63
2019-03-23T01:31:01.651Z,38.03
2019-03-23T01:36:04.268Z,34.40
2019-03-23T01:41:06.861Z,38.70
2019-03-23T01:46:09.481Z,36.50
2019-03-23T01:51:12.149Z,32.80
2019-03-23T01:56:14.900Z,32.83
2019-03-23T02:01:17.550Z,34.00
2019-03-23T02:06:20.175Z,28.70
2019-03-23T02:11:22.726Z,30.50
2019-03-23T02:16:25.373Z,29.87
2019-03-23T02:21:28.037Z,28.37
2019-03-23T02:26:30.659Z,32.70
2019-03-23T02:31:33.279Z,28.20
2019-03-23T02:36:35.867Z,28.67
2019-03-23T02:41:38.507Z,29.57
2019-03-23T02:46:41.067Z,31.63
2019-03-23T02:51:43.570Z,29.77
2019-03-23T02:56:46.208Z,28.50
2019-03-23T03:01:49.821Z,31.07
2019-03-23T03:06:52.460Z,31.83
2019-03-23T03:11:54.998Z,30.67
2019-03-23T03:16:57.566Z,26.97
2019-03-23T03:22:00.228Z,30.97
2019-03-23T03:27:02.986Z,29.33
2019-03-23T03:32:05.630Z,26.53
2019-03-23T03:37:09.444Z,29.50
2019-03-23T03:42:12.053Z,28.50
2019-03-23T03:47:14.560Z,28.57
2019-03-23T03:52:17.231Z,26.73
2019-03-23T03:57:19.861Z,25.63
2019-03-23T04:02:22.474Z,28.60
2019-03-23T04:07:25.068Z,25.77
2019-03-23T04:12:27.726Z,31.10
2019-03-23T04:17:32.224Z,27.97
2019-03-23T04:22:36.713Z,26.83
2019-03-23T04:27:39.304Z,26.77
2019-03-23T04:32:41.911Z,26.60
2019-03-23T04:37:44.469Z,26.77
2019-03-23T04:42:47.073Z,27.33
2019-03-23T04:47:51.485Z,25.80
2019-03-23T04:52:55.584Z,27.77
2019-03-23T04:57:58.223Z,28.50
2019-03-23T05:03:00.836Z,28.10
2019-03-23T05:08:03.460Z,26.90
2019-03-23T05:13:06.088Z,24.13
2019-03-23T05:18:08.703Z,24.47
2019-03-23T05:23:11.332Z,23.63
2019-03-23T05:28:13.825Z,24.70
2019-03-23T05:33:16.389Z,23.83
2019-03-23T05:38:18.998Z,26.47
2019-03-23T05:43:21.640Z,24.70
2019-03-23T05:48:28.765Z,25.80
2019-03-23T05:53:32.113Z,22.57
2019-03-23T05:58:34.803Z,21.57
2019-03-23T06:03:37.377Z,21.07
2019-03-23T06:08:40.020Z,22.40
2019-03-23T06:13:42.691Z,23.60
2019-03-23T06:18:45.362Z,23.10
2019-03-23T06:23:47.945Z,20.67
2019-03-23T06:28:50.618Z,20.33
2019-03-23T06:33:53.332Z,19.33
2019-03-23T06:39:05.060Z,16.00
2019-03-23T06:44:00.642Z,19.63
2019-03-23T06:49:04.930Z,18.67
2019-03-23T06:54:07.601Z,17.33
2019-03-23T06:59:10.229Z,16.03
2019-03-23T07:04:12.869Z,19.67
2019-03-23T07:09:16.485Z,18.10
2019-03-23T07:14:21.553Z,14.47
2019-03-23T07:19:24.127Z,20.20
2019-03-23T07:24:26.740Z,15.57
2019-03-23T07:29:29.321Z,16.03
2019-03-23T07:34:31.926Z,17.77
2019-03-23T07:39:34.553Z,6.90
2019-03-23T07:44:37.177Z,11.68
2019-03-23T07:49:39.843Z,16.77
2019-03-23T07:54:42.435Z,13.55
2019-03-23T07:59:45.061Z,13.40
2019-03-23T08:04:47.734Z,17.75
2019-03-23T08:09:50.360Z,14.73
2019-03-23T08:14:52.989Z,14.93
2019-03-23T08:19:55.539Z,14.35
2019-03-23T08:24:58.186Z,13.25
2019-03-23T08:30:00.830Z,12.07
2019-03-23T08:35:03.998Z,12.43
2019-03-23T08:40:07.268Z,12.30
2019-03-23T08:45:09.870Z,9.53
2019-03-23T08:50:12.491Z,9.30
2019-03-23T08:55:15.155Z,11.20
2019-03-23T09:00:17.891Z,12.35
2019-03-23T09:05:20.612Z,10.13
2019-03-23T09:10:23.254Z,11.68
2019-03-23T09:15:25.902Z,11.80
2019-03-23T09:20:29.514Z,10.65
2019-03-23T09:25:32.523Z,12.90
2019-03-23T09:30:35.119Z,13.25
2019-03-23T09:35:39.445Z,10.43
2019-03-23T09:40:42.280Z,15.05
2019-03-23T09:45:44.901Z,11.45
2019-03-23T09:50:48.569Z,13.55
2019-03-23T09:55:51.219Z,15.20
2019-03-23T10:00:53.861Z,18.90
2019-03-23T10:05:56.475Z,19.17
2019-03-23T10:10:59.093Z,21.27
2019-03-23T10:16:01.682Z,20.20
2019-03-23T10:21:04.334Z,20.00
2019-03-23T10:26:07.072Z,22.00
2019-03-23T10:31:09.645Z,20.20
2019-03-23T10:36:12.390Z,23.15
2019-03-23T10:41:15.051Z,21.27
2019-03-23T10:46:17.696Z,25.10
2019-03-23T10:51:20.333Z,27.52
2019-03-23T10:56:23.052Z,24.35
2019-03-23T11:01:25.701Z,24.82
2019-03-23T11:06:28.323Z,24.10
2019-03-23T11:11:30.999Z,26.45
2019-03-23T11:16:33.671Z,23.95
2019-03-23T11:21:37.607Z,23.20
2019-03-23T11:26:40.197Z,24.47
2019-03-23T11:31:42.829Z,21.55
2019-03-23T11:36:45.408Z,22.30
2019-03-23T11:41:47.986Z,23.45
2019-03-23T11:46:50.550Z,24.25
2019-03-23T11:51:53.024Z,26.70
2019-03-23T11:56:55.652Z,23.07
2019-03-23T12:01:58.340Z,23.40
2019-03-23T12:07:00.962Z,22.60
2019-03-23T12:12:03.761Z,23.27
2019-03-23T12:17:06.383Z,21.85
2019-03-23T12:22:09.073Z,21.40
2019-03-23T12:27:11.731Z,21.05
2019-03-23T12:32:14.474Z,21.82
2019-03-23T12:37:17.110Z,22.02
2019-03-23T12:42:19.741Z,20.48
2019-03-23T12:47:22.356Z,23.83
2019-03-23T12:52:25.010Z,33.78
2019-03-23T12:57:27.557Z,32.13
2019-03-23T13:02:30.189Z,37.78
2019-03-23T13:07:32.839Z,48.17
2019-03-23T13:12:35.482Z,45.83
2019-03-23T13:17:38.186Z,49.13
2019-03-23T13:22:40.894Z,56.20
2019-03-23T13:27:43.668Z,53.00
2019-03-23T13:32:46.242Z,52.93
2019-03-23T13:37:48.871Z,55.37
2019-03-23T13:42:51.507Z,62.37
2019-03-23T13:47:54.973Z,75.37
2019-03-23T13:52:57.908Z,73.30
2019-03-23T13:58:18.769Z,75.13
2019-03-23T14:03:21.339Z,71.47
2019-03-23T14:08:24.015Z,68.73
2019-03-23T14:13:27.841Z,76.07
2019-03-23T14:18:30.600Z,70.17
2019-03-23T14:23:33.309Z,58.77
2019-03-23T14:28:35.900Z,57.83
2019-03-23T14:33:40.164Z,57.27
2019-03-23T14:38:43.062Z,55.63
2019-03-23T14:43:45.639Z,57.33
2019-03-23T14:48:48.267Z,55.67
2019-03-23T14:53:50.874Z,55.33
2019-03-23T14:58:53.598Z,54.73
2019-03-23T15:03:56.259Z,59.87
2019-03-23T15:08:58.871Z,57.93
2019-03-23T15:14:01.484Z,57.13
2019-03-23T15:19:04.095Z,61.23
2019-03-23T15:24:09.194Z,56.30
2019-03-23T15:29:13.036Z,61.47
2019-03-23T15:34:17.009Z,62.87
2019-03-23T15:39:19.659Z,69.60
2019-03-23T15:44:22.289Z,67.87
2019-03-23T15:49:24.995Z,68.03
2019-03-23T15:54:27.637Z,63.70
2019-03-23T15:59:30.238Z,66.27
2019-03-23T16:04:32.932Z,63.53
2019-03-23T16:09:35.653Z,62.10
2019-03-23T16:14:38.289Z,61.33
2019-03-23T16:19:40.835Z,57.10
2019-03-23T16:24:43.283Z,58.30
2019-03-23T16:29:45.891Z,57.97
2019-03-23T16:34:48.476Z,58.20
2019-03-23T16:39:51.090Z,56.07
2019-03-23T16:44:53.714Z,61.37
2019-03-23T16:49:56.356Z,58.47
2019-03-23T16:54:58.963Z,57.40
2019-03-23T17:00:01.587Z,54.03
2019-03-23T17:05:05.988Z,54.47
2019-03-23T17:10:09.095Z,50.63
2019-03-23T17:15:12.861Z,51.33
2019-03-23T17:20:15.521Z,51.80
2019-03-23T17:25:18.152Z,53.27
2019-03-23T17:30:20.920Z,54.50
2019-03-23T17:35:23.530Z,54.40
2019-03-23T17:40:26.154Z,55.47
2019-03-23T17:45:28.797Z,54.83
2019-03-23T17:50:31.424Z,58.60
2019-03-23T17:55:34.248Z,55.57
2019-03-23T18:00:36.924Z,59.93
2019-03-23T18:05:39.654Z,57.97
2019-03-23T18:10:42.261Z,57.90
2019-03-23T18:15:44.863Z,59.13
2019-03-23T18:20:47.477Z,64.97
2019-03-23T18:25:50.961Z,59.37
2019-03-23T18:30:53.463Z,66.63
2019-03-23T18:35:56.072Z,67.30
2019-03-23T18:40:58.673Z,59.43
2019-03-23T18:46:01.305Z,57.57
2019-03-23T18:51:04.077Z,60.80
2019-03-23T18:56:06.744Z,56.20
2019-03-23T19:01:09.235Z,58.30
2019-03-23T19:06:11.864Z,58.20
2019-03-23T19:11:15.095Z,54.10
2019-03-23T19:16:17.746Z,54.70
2019-03-23T19:21:20.377Z,59.77
2019-03-23T19:26:23.027Z,62.90
2019-03-23T19:31:25.707Z,56.47
2019-03-23T19:36:28.292Z,62.70
2019-03-23T19:41:30.919Z,59.60
2019-03-23T19:46:35.926Z,58.17
2019-03-23T19:51:38.683Z,63.03
2019-03-23T19:56:41.279Z,64.00
2019-03-23T20:01:44.005Z,59.83
2019-03-23T20:06:46.686Z,62.10
2019-03-23T20:11:49.319Z,53.63
2019-03-23T20:16:52.048Z,64.00
2019-03-23T20:21:54.668Z,54.63
2019-03-23T20:26:57.364Z,57.13
2019-03-23T20:32:00.007Z,54.27
2019-03-23T20:37:02.878Z,60.77
2019-03-23T20:42:05.510Z,59.00
2019-03-23T20:47:08.287Z,65.30
2019-03-23T20:52:10.989Z,63.23
2019-03-23T20:57:23.457Z,66.33
2019-03-23T21:02:18.267Z,60.83
2019-03-23T21:07:20.900Z,68.73
2019-03-23T21:12:23.525Z,74.20
2019-03-23T21:17:28.186Z,63.03
2019-03-23T21:22:30.922Z,72.23
2019-03-23T21:27:33.788Z,66.50
2019-03-23T21:32:36.359Z,68.80
2019-03-23T21:37:39.050Z,68.30
2019-03-23T21:42:41.765Z,71.33
2019-03-23T21:47:44.359Z,70.83
2019-03-23T21:52:46.977Z,75.67
2019-03-23T21:57:49.787Z,73.97
2019-03-23T22:02:52.406Z,75.30
2019-03-23T22:07:55.093Z,72.97
2019-03-23T22:12:57.860Z,75.07
2019-03-23T22:18:00.489Z,71.97
2019-03-23T22:23:03.379Z,83.37
2019-03-23T22:28:06.031Z,85.00
2019-03-23T22:33:09.507Z,70.37
2019-03-23T22:38:12.222Z,74.53
2019-03-23T22:43:14.798Z,76.03
2019-03-23T22:48:17.453Z,68.60
2019-03-23T22:53:21.778Z,69.67
2019-03-23T22:58:24.228Z,79.53
2019-03-23T23:03:26.989Z,75.13
2019-03-23T23:08:29.710Z,66.43
2019-03-23T23:13:32.313Z,74.20
2019-03-23T23:18:34.905Z,67.73
2019-03-23T23:23:37.588Z,78.67
2019-03-23T23:28:41.436Z,72.43
2019-03-23T23:33:45.309Z,75.37
2019-03-23T23:38:47.894Z,71.60
2019-03-23T23:43:52.654Z,75.33
2019-03-23T23:48:55.338Z,72.37
2019-03-23T23:54:00.204Z,71.10
2019-03-23T23:59:02.832Z,76.37
